Time;durP1;ratioP1;P1;durP2;ratioP2;P2;SDS_P1;SDS_P2;PMS_P1;PMS_P2;Temp;Humidity;BMP_temperature;BMP_pressure;BME280_temperature;BME280_humidity;BME280_pressure;Samples;Min_cycle;Max_cycle;Signal;HPM_P1;HPM_P2
2022/03/04 00:00:57;;;;;;;;;;;21.40;26.40;;;;;;5074487;28;19909;-58
2022/03/04 00:03:22;;;;;;;;;;;21.40;26.40;;;;;;5071924;28;20236;-54
2022/03/04 00:05:48;;;;;;;;;;;21.40;26.40;;;;;;5074981;28;20007;-51
2022/03/04 00:08:14;;;;;;;;;;;21.40;26.30;;;;;;5072135;28;19995;-55
2022/03/04 00:10:39;;;;;;;;;;;21.40;26.40;;;;;;5076324;28;19938;-58
2022/03/04 00:13:05;;;;;;;;;;;21.30;26.40;;;;;;5064915;28;19931;-52
2022/03/04 00:15:31;;;;;;;;;;;21.40;26.50;;;;;;5077362;28;19908;-57
2022/03/04 00:17:57;;;;;;;;;;;21.40;26.50;;;;;;5065764;28;19978;-57
2022/03/04 00:20:23;;;;;;;;;;;21.30;26.40;;;;;;5077041;28;19909;-53
2022/03/04 00:22:49;;;;;;;;;;;21.30;26.40;;;;;;5075320;28;19927;-56
2022/03/04 00:25:15;;;;;;;;;;;21.30;26.40;;;;;;5076666;28;19923;-56
2022/03/04 00:27:41;;;;;;;;;;;21.30;26.40;;;;;;5075893;28;19909;-57
2022/03/04 00:30:07;;;;;;;;;;;21.30;26.40;;;;;;5075740;28;19995;-56
2022/03/04 00:32:34;;;;;;;;;;;21.30;26.40;;;;;;5063249;28;20332;-57
2022/03/04 00:34:59;;;;;;;;;;;21.30;26.40;;;;;;5056841;28;19958;-56
2022/03/04 00:37:25;;;;;;;;;;;21.30;26.40;;;;;;5069635;28;19912;-56
2022/03/04 00:39:51;;;;;;;;;;;21.30;26.40;;;;;;5075976;28;19909;-53
2022/03/04 00:42:16;;;;;;;;;;;21.30;26.40;;;;;;5075985;28;19916;-53
2022/03/04 00:44:42;;;;;;;;;;;21.30;26.30;;;;;;5067609;28;19917;-55
2022/03/04 00:47:08;;;;;;;;;;;21.30;26.40;;;;;;5068001;28;19919;-54
2022/03/04 00:49:34;;;;;;;;;;;21.30;26.30;;;;;;5067624;28;20030;-52
2022/03/04 00:52:00;;;;;;;;;;;21.30;26.40;;;;;;5067720;28;19916;-51
2022/03/04 00:54:25;;;;;;;;;;;21.30;26.40;;;;;;5069667;28;20308;-55
2022/03/04 00:56:51;;;;;;;;;;;21.30;26.40;;;;;;5068281;28;19916;-55
2022/03/04 00:59:17;;;;;;;;;;;21.30;26.40;;;;;;5073798;28;20019;-54
2022/03/04 01:01:42;;;;;;;;;;;21.30;26.40;;;;;;5076433;28;19963;-56
2022/03/04 01:04:08;;;;;;;;;;;21.30;26.40;;;;;;5056450;28;19913;-56
2022/03/04 01:06:34;;;;;;;;;;;21.20;26.40;;;;;;5064917;28;19908;-56
2022/03/04 01:09:00;;;;;;;;;;;21.20;26.40;;;;;;5076789;28;20227;-57
2022/03/04 01:11:25;;;;;;;;;;;21.20;26.40;;;;;;5078235;28;19978;-52
2022/03/04 01:13:51;;;;;;;;;;;21.20;26.40;;;;;;5095606;28;19926;-53
2022/03/04 01:16:17;;;;;;;;;;;21.30;26.50;;;;;;5085449;28;19912;-56
2022/03/04 01:18:42;;;;;;;;;;;21.20;26.40;;;;;;5066845;28;19937;-56
2022/03/04 01:21:08;;;;;;;;;;;21.20;26.40;;;;;;5074348;28;19922;-51
2022/03/04 01:23:34;;;;;;;;;;;21.20;26.40;;;;;;5096502;28;19923;-56
2022/03/04 01:26:00;;;;;;;;;;;21.20;26.90;;;;;;5085367;28;19908;-55
2022/03/04 01:28:26;;;;;;;;;;;21.20;26.40;;;;;;5084605;28;19918;-54
2022/03/04 01:30:52;;;;;;;;;;;21.20;26.40;;;;;;5079758;28;19965;-54
2022/03/04 01:33:17;;;;;;;;;;;21.20;26.40;;;;;;5075013;28;19908;-53
2022/03/04 01:35:43;;;;;;;;;;;21.20;26.40;;;;;;5079819;28;19927;-55
2022/03/04 01:38:09;;;;;;;;;;;21.20;26.40;;;;;;5075022;28;19908;-55
2022/03/04 01:40:35;;;;;;;;;;;21.20;26.40;;;;;;5086653;28;19908;-55
2022/03/04 01:43:00;;;;;;;;;;;21.20;26.40;;;;;;5095874;28;19916;-57
2022/03/04 01:45:27;;;;;;;;;;;21.20;26.40;;;;;;5068557;28;20358;-52
2022/03/04 01:47:53;;;;;;;;;;;21.20;26.40;;;;;;5075539;28;19908;-52
2022/03/04 01:50:19;;;;;;;;;;;21.20;26.50;;;;;;5068174;28;20287;-56
2022/03/04 01:52:45;;;;;;;;;;;21.20;26.50;;;;;;5074110;28;19969;-55
2022/03/04 01:55:11;;;;;;;;;;;21.10;26.40;;;;;;5083371;28;19908;-51
2022/03/04 01:57:37;;;;;;;;;;;21.20;26.50;;;;;;5074627;28;20413;-55
2022/03/04 02:00:05;;;;;;;;;;;21.20;26.50;;;;;;5062558;28;19912;-56
2022/03/04 02:02:38;;;;;;;;;;;21.20;26.50;;;;;;5064877;28;19912;-51
2022/03/04 02:05:03;;;;;;;;;;;21.10;26.40;;;;;;5062827;28;19913;-56
2022/03/04 02:07:29;;;;;;;;;;;21.10;26.40;;;;;;5065813;28;19938;-57
2022/03/04 02:09:55;;;;;;;;;;;21.10;26.40;;;;;;5060540;28;19970;-55
2022/03/04 02:12:21;;;;;;;;;;;21.10;26.40;;;;;;5075272;28;19908;-54
2022/03/04 02:14:46;;;;;;;;;;;21.10;26.50;;;;;;5070936;28;19908;-52
2022/03/04 02:17:12;;;;;;;;;;;21.10;26.40;;;;;;5055504;28;19958;-54
2022/03/04 02:19:38;;;;;;;;;;;21.10;26.50;;;;;;5071121;28;19920;-50
2022/03/04 02:22:04;;;;;;;;;;;21.10;26.50;;;;;;5055557;28;19952;-54
2022/03/04 02:24:31;;;;;;;;;;;21.10;26.50;;;;;;5065530;28;19939;-57
2022/03/04 02:26:57;;;;;;;;;;;21.10;26.50;;;;;;5079186;28;19908;-53
2022/03/04 02:29:24;;;;;;;;;;;21.10;26.50;;;;;;5077342;28;19938;-53
2022/03/04 02:31:50;;;;;;;;;;;21.10;26.50;;;;;;5078948;28;19959;-54
2022/03/04 02:34:16;;;;;;;;;;;21.00;26.50;;;;;;5072906;28;20050;-55
2022/03/04 02:36:42;;;;;;;;;;;21.10;26.60;;;;;;5077064;28;20335;-55
2022/03/04 02:39:08;;;;;;;;;;;21.00;26.50;;;;;;5078992;28;20057;-56
2022/03/04 02:41:34;;;;;;;;;;;21.10;26.50;;;;;;5073816;28;20003;-56
2022/03/04 02:44:00;;;;;;;;;;;21.00;26.50;;;;;;5078434;28;19912;-51
2022/03/04 02:46:26;;;;;;;;;;;21.00;26.50;;;;;;5078248;28;20369;-54
2022/03/04 02:48:52;;;;;;;;;;;21.00;26.50;;;;;;5078596;28;19908;-58
2022/03/04 02:51:17;;;;;;;;;;;21.00;26.50;;;;;;5063153;28;19945;-55
2022/03/04 02:53:43;;;;;;;;;;;21.00;26.50;;;;;;5076511;28;19963;-52
2022/03/04 02:56:09;;;;;;;;;;;21.00;26.50;;;;;;5064086;28;19909;-56
2022/03/04 02:58:34;;;;;;;;;;;21.00;26.50;;;;;;5060076;28;19921;-55
2022/03/04 03:01:00;;;;;;;;;;;21.00;26.50;;;;;;5059859;28;19917;-53
2022/03/04 03:03:27;;;;;;;;;;;21.00;26.50;;;;;;5075921;28;19961;-58
2022/03/04 03:05:53;;;;;;;;;;;21.00;26.50;;;;;;5060562;28;19908;-55
2022/03/04 03:08:18;;;;;;;;;;;21.00;26.50;;;;;;5074662;28;19975;-53
2022/03/04 03:10:44;;;;;;;;;;;21.00;26.50;;;;;;5078050;28;20354;-56
2022/03/04 03:13:10;;;;;;;;;;;21.00;27.00;;;;;;5071305;28;19908;-53
2022/03/04 03:15:36;;;;;;;;;;;21.00;26.50;;;;;;5058226;28;20243;-52
2022/03/04 03:18:02;;;;;;;;;;;21.00;26.50;;;;;;5066340;28;19908;-53
2022/03/04 03:20:28;;;;;;;;;;;21.00;26.50;;;;;;5057638;28;20298;-55
2022/03/04 03:22:54;;;;;;;;;;;21.00;26.50;;;;;;5067324;28;19939;-55
2022/03/04 03:25:19;;;;;;;;;;;21.00;26.50;;;;;;5057769;28;19920;-53
2022/03/04 03:27:45;;;;;;;;;;;21.00;26.60;;;;;;5077521;28;20303;-51
2022/03/04 03:30:11;;;;;;;;;;;21.00;26.50;;;;;;5078168;28;19911;-54
2022/03/04 03:32:37;;;;;;;;;;;21.00;26.50;;;;;;5077084;28;19944;-54
2022/03/04 03:35:03;;;;;;;;;;;21.00;26.60;;;;;;5077565;28;19958;-57
2022/03/04 03:37:28;;;;;;;;;;;21.00;26.60;;;;;;5076506;28;20370;-58
2022/03/04 03:39:54;;;;;;;;;;;21.00;26.60;;;;;;5075985;28;19912;-56
2022/03/04 03:42:20;;;;;;;;;;;20.90;26.50;;;;;;5076514;28;19916;-55
2022/03/04 03:44:45;;;;;;;;;;;20.90;26.60;;;;;;5076675;28;20350;-56
2022/03/04 03:47:11;;;;;;;;;;;20.90;26.60;;;;;;5077444;28;19942;-54
2022/03/04 03:49:38;;;;;;;;;;;20.90;26.60;;;;;;5076607;28;19912;-49
2022/03/04 03:52:04;;;;;;;;;;;20.90;26.60;;;;;;5077027;28;19951;-57
2022/03/04 03:54:29;;;;;;;;;;;20.90;26.60;;;;;;5069871;28;19978;-51
2022/03/04 03:56:55;;;;;;;;;;;20.90;26.60;;;;;;5074499;28;19949;-56
2022/03/04 03:59:20;;;;;;;;;;;20.90;26.60;;;;;;5085524;28;20047;-54
2022/03/04 04:01:46;;;;;;;;;;;20.90;26.60;;;;;;5069682;28;19912;-57
2022/03/04 04:04:12;;;;;;;;;;;20.90;26.60;;;;;;5072593;28;20282;-51
2022/03/04 04:06:39;;;;;;;;;;;20.90;26.60;;;;;;5086265;28;19908;-57
2022/03/04 04:09:05;;;;;;;;;;;20.90;26.60;;;;;;5090157;28;19923;-58
2022/03/04 04:11:35;;;;;;;;;;;20.90;26.60;;;;;;5076077;28;20287;-59
2022/03/04 04:14:01;;;;;;;;;;;20.90;26.60;;;;;;5091684;28;19920;-59
2022/03/04 04:16:27;;;;;;;;;;;20.90;26.60;;;;;;5075126;28;20358;-56
2022/03/04 04:18:52;;;;;;;;;;;20.80;26.60;;;;;;5095740;28;19915;-54
2022/03/04 04:21:18;;;;;;;;;;;20.80;26.60;;;;;;5082912;28;19938;-55
2022/03/04 04:23:44;;;;;;;;;;;20.90;26.60;;;;;;5096311;28;19922;-55
2022/03/04 04:26:09;;;;;;;;;;;20.80;26.60;;;;;;5066044;28;19944;-52
2022/03/04 04:28:35;;;;;;;;;;;20.80;26.60;;;;;;5080108;28;19912;-53
2022/03/04 04:31:01;;;;;;;;;;;20.80;26.60;;;;;;5077455;28;20373;-54
2022/03/04 04:33:27;;;;;;;;;;;20.80;26.70;;;;;;5078742;28;20007;-57
2022/03/04 04:35:52;;;;;;;;;;;20.80;26.70;;;;;;5072062;28;20216;-55
2022/03/04 04:38:18;;;;;;;;;;;20.80;26.70;;;;;;5076876;28;19919;-54
2022/03/04 04:40:44;;;;;;;;;;;20.80;26.70;;;;;;5059268;28;19909;-56
2022/03/04 04:43:09;;;;;;;;;;;20.80;26.70;;;;;;5049420;28;20259;-56
2022/03/04 04:45:35;;;;;;;;;;;20.80;26.70;;;;;;5060325;28;19909;-55
2022/03/04 04:48:01;;;;;;;;;;;20.80;26.70;;;;;;5074764;28;19947;-49
2022/03/04 04:50:27;;;;;;;;;;;20.80;26.70;;;;;;5080885;28;19916;-51
2022/03/04 04:52:52;;;;;;;;;;;20.80;26.70;;;;;;5077268;28;19918;-54
2022/03/04 04:55:18;;;;;;;;;;;20.80;26.70;;;;;;5062726;28;19992;-51
2022/03/04 04:57:44;;;;;;;;;;;20.80;26.70;;;;;;5063038;28;20251;-56
2022/03/04 05:00:09;;;;;;;;;;;20.80;26.80;;;;;;5075163;28;19909;-54
2022/03/04 05:02:36;;;;;;;;;;;20.80;26.80;;;;;;5076123;28;19912;-55
2022/03/04 05:05:02;;;;;;;;;;;20.70;26.80;;;;;;5075171;28;20196;-51
2022/03/04 05:07:27;;;;;;;;;;;20.80;26.80;;;;;;5075399;28;19908;-52
2022/03/04 05:09:53;;;;;;;;;;;20.80;26.80;;;;;;5066630;28;19939;-56
2022/03/04 05:12:19;;;;;;;;;;;20.80;26.80;;;;;;5072567;28;19919;-55
2022/03/04 05:14:45;;;;;;;;;;;20.70;27.30;;;;;;5073820;28;19922;-56
2022/03/04 05:17:11;;;;;;;;;;;20.70;26.80;;;;;;5075796;28;19908;-52
2022/03/04 05:19:36;;;;;;;;;;;20.70;26.80;;;;;;5075204;28;20220;-56
2022/03/04 05:22:02;;;;;;;;;;;20.70;26.80;;;;;;5075348;28;20336;-59
2022/03/04 05:24:28;;;;;;;;;;;20.70;26.80;;;;;;5069102;28;19909;-59
2022/03/04 05:26:54;;;;;;;;;;;20.70;26.80;;;;;;5068809;28;19919;-55
2022/03/04 05:29:20;;;;;;;;;;;20.70;26.80;;;;;;5074286;28;19908;-56
2022/03/04 05:31:45;;;;;;;;;;;20.70;26.80;;;;;;5074303;28;20243;-52
2022/03/04 05:34:12;;;;;;;;;;;20.70;26.80;;;;;;5074687;28;19909;-56
2022/03/04 05:36:38;;;;;;;;;;;20.70;26.80;;;;;;5075522;28;19957;-60
2022/03/04 05:39:04;;;;;;;;;;;20.70;26.90;;;;;;5074777;28;20329;-56
2022/03/04 05:41:30;;;;;;;;;;;20.70;26.90;;;;;;5067738;28;20232;-53
2022/03/04 05:43:56;;;;;;;;;;;20.70;26.90;;;;;;5057201;28;19920;-53
2022/03/04 05:46:22;;;;;;;;;;;20.70;26.90;;;;;;5075036;28;19908;-53
2022/03/04 05:48:47;;;;;;;;;;;20.70;26.90;;;;;;5074384;28;19927;-59
2022/03/04 05:51:13;;;;;;;;;;;20.70;26.90;;;;;;5066177;28;20358;-55
2022/03/04 05:53:39;;;;;;;;;;;20.70;26.90;;;;;;5057490;28;19931;-58
2022/03/04 05:56:06;;;;;;;;;;;20.70;26.90;;;;;;5073262;28;19942;-56
2022/03/04 05:58:33;;;;;;;;;;;20.70;26.90;;;;;;5074666;28;20316;-56
2022/03/04 06:00:58;;;;;;;;;;;20.70;26.90;;;;;;5067973;28;19931;-55
2022/03/04 06:03:25;;;;;;;;;;;20.60;26.90;;;;;;5055304;28;19947;-55
2022/03/04 06:05:51;;;;;;;;;;;20.70;26.90;;;;;;5073544;28;19908;-59
2022/03/04 06:08:17;;;;;;;;;;;20.70;26.90;;;;;;5074653;28;20003;-50
2022/03/04 06:10:43;;;;;;;;;;;20.70;26.90;;;;;;5062946;28;19916;-56
2022/03/04 06:13:09;;;;;;;;;;;20.60;26.90;;;;;;5056352;28;20239;-56
2022/03/04 06:15:34;;;;;;;;;;;20.60;26.90;;;;;;5074672;28;19912;-54
2022/03/04 06:18:00;;;;;;;;;;;20.60;26.90;;;;;;5074482;28;19908;-57
2022/03/04 06:20:26;;;;;;;;;;;20.60;26.90;;;;;;5071297;28;19969;-55
2022/03/04 06:22:51;;;;;;;;;;;20.60;26.90;;;;;;5074855;28;19916;-58
2022/03/04 06:25:17;;;;;;;;;;;20.60;26.90;;;;;;5071270;28;19908;-55
2022/03/04 06:27:56;;;;;;;;;;;20.60;26.90;;;;;;5073494;28;19928;-58
2022/03/04 06:30:22;;;;;;;;;;;20.60;26.90;;;;;;5059441;28;19912;-50
2022/03/04 06:32:49;;;;;;;;;;;20.60;27.00;;;;;;5059636;28;20270;-58
2022/03/04 06:35:14;;;;;;;;;;;20.60;26.90;;;;;;5054992;28;19908;-58
2022/03/04 06:37:40;;;;;;;;;;;20.60;26.90;;;;;;5071134;28;19916;-50
2022/03/04 06:40:06;;;;;;;;;;;20.60;26.90;;;;;;5072258;28;19991;-54
2022/03/04 06:42:33;;;;;;;;;;;20.60;26.90;;;;;;5073875;28;19960;-54
2022/03/04 06:44:58;;;;;;;;;;;20.60;26.90;;;;;;5075241;28;20353;-56
2022/03/04 06:47:24;;;;;;;;;;;20.50;26.90;;;;;;5066439;28;19908;-56
2022/03/04 06:49:50;;;;;;;;;;;20.50;26.90;;;;;;5074666;28;19909;-54
2022/03/04 06:52:15;;;;;;;;;;;20.50;26.90;;;;;;5073882;28;20223;-46
2022/03/04 06:54:45;;;;;;;;;;;20.50;26.80;;;;;;5070511;28;19940;-57
2022/03/04 06:57:12;;;;;;;;;;;20.50;26.80;;;;;;5073698;28;19977;-57
2022/03/04 06:59:37;;;;;;;;;;;20.50;26.80;;;;;;5063274;28;20290;-57
2022/03/04 07:02:06;;;;;;;;;;;20.50;26.80;;;;;;5057630;28;19943;-56
2022/03/04 07:04:32;;;;;;;;;;;20.50;26.80;;;;;;5056182;28;19947;-59
2022/03/04 07:06:57;;;;;;;;;;;20.50;26.80;;;;;;5070342;28;20331;-55
2022/03/04 07:09:23;;;;;;;;;;;20.50;26.80;;;;;;5063608;28;19962;-59
2022/03/04 07:11:49;;;;;;;;;;;20.50;26.80;;;;;;5071167;28;19908;-57
2022/03/04 07:14:14;;;;;;;;;;;20.50;26.90;;;;;;5074601;28;19931;-58
2022/03/04 07:16:44;;;;;;;;;;;20.50;26.90;;;;;;5076865;28;19909;-58
2022/03/04 07:19:13;;;;;;;;;;;20.50;26.90;;;;;;5077130;28;19912;-58
2022/03/04 07:21:40;;;;;;;;;;;20.50;26.90;;;;;;5071153;28;19927;-54
2022/03/04 07:24:06;;;;;;;;;;;20.50;26.90;;;;;;5076715;28;19999;-57
2022/03/04 07:26:31;;;;;;;;;;;20.50;26.90;;;;;;5074963;28;20243;-57
2022/03/04 07:29:00;;;;;;;;;;;20.50;26.90;;;;;;5077116;28;20011;-57
2022/03/04 07:31:25;;;;;;;;;;;20.40;26.90;;;;;;5064612;28;19970;-59
2022/03/04 07:33:51;;;;;;;;;;;20.50;26.90;;;;;;5077016;28;20003;-56
2022/03/04 07:36:17;;;;;;;;;;;20.50;26.90;;;;;;5077712;28;20278;-56
2022/03/04 07:38:44;;;;;;;;;;;20.50;26.90;;;;;;5076443;28;20328;-57
2022/03/04 07:41:09;;;;;;;;;;;20.50;27.00;;;;;;5076322;28;20340;-55
2022/03/04 07:43:35;;;;;;;;;;;20.40;26.90;;;;;;5072617;28;19921;-55
2022/03/04 07:46:01;;;;;;;;;;;20.50;26.90;;;;;;5076905;28;19930;-50
2022/03/04 07:48:27;;;;;;;;;;;20.50;26.90;;;;;;5076344;28;20389;-60
2022/03/04 07:50:53;;;;;;;;;;;20.60;26.90;;;;;;5083732;28;19908;-56
2022/03/04 07:53:19;;;;;;;;;;;20.60;26.80;;;;;;5092602;28;19952;-51
2022/03/04 07:55:45;;;;;;;;;;;20.70;26.70;;;;;;5076772;28;19955;-54
2022/03/04 07:58:10;;;;;;;;;;;20.80;26.60;;;;;;5074113;28;20284;-58
2022/03/04 08:00:36;;;;;;;;;;;20.80;26.60;;;;;;5082245;28;19919;-60
2022/03/04 08:03:05;;;;;;;;;;;20.90;26.50;;;;;;5079995;28;19916;-56
2022/03/04 08:05:31;;;;;;;;;;;21.00;26.40;;;;;;5073516;28;19965;-60
2022/03/04 08:07:57;;;;;;;;;;;21.10;26.40;;;;;;5065300;28;19951;-58
2022/03/04 08:10:23;;;;;;;;;;;21.20;26.30;;;;;;5074668;28;19944;-59
2022/03/04 08:12:50;;;;;;;;;;;21.30;26.30;;;;;;5070832;28;19908;-59
2022/03/04 08:15:18;;;;;;;;;;;21.30;26.20;;;;;;5076121;28;19988;-60
2022/03/04 08:17:45;;;;;;;;;;;21.40;26.30;;;;;;5076715;28;19971;-60
2022/03/04 08:20:11;;;;;;;;;;;21.50;26.20;;;;;;5075693;28;19916;-56
2022/03/04 08:22:37;;;;;;;;;;;21.50;26.10;;;;;;5075327;28;19920;-58
2022/03/04 08:25:03;;;;;;;;;;;21.70;26.20;;;;;;5076366;28;19917;-58
2022/03/04 08:27:29;;;;;;;;;;;21.70;26.10;;;;;;5076452;28;19909;-56
2022/03/04 08:29:56;;;;;;;;;;;21.80;26.00;;;;;;5075917;28;19908;-55
2022/03/04 08:32:23;;;;;;;;;;;21.80;26.00;;;;;;5076240;28;20010;-55
2022/03/04 08:34:49;;;;;;;;;;;21.90;26.00;;;;;;5076103;28;20255;-56
2022/03/04 08:37:15;;;;;;;;;;;21.90;25.90;;;;;;5076076;28;20436;-55
2022/03/04 08:39:40;;;;;;;;;;;22.00;25.90;;;;;;5076350;28;19908;-59
2022/03/04 08:42:07;;;;;;;;;;;22.10;25.90;;;;;;5076129;28;19917;-56
2022/03/04 08:44:32;;;;;;;;;;;22.10;25.80;;;;;;5076628;28;19959;-56
2022/03/04 08:46:58;;;;;;;;;;;22.10;25.80;;;;;;5076250;28;19908;-53
2022/03/04 08:49:24;;;;;;;;;;;22.20;25.80;;;;;;5076076;28;19982;-50
2022/03/04 08:51:51;;;;;;;;;;;22.30;25.80;;;;;;5076414;28;19960;-54
2022/03/04 08:54:16;;;;;;;;;;;22.30;25.70;;;;;;5076232;28;19946;-49
2022/03/04 08:56:42;;;;;;;;;;;22.30;25.70;;;;;;5075983;28;19915;-52
2022/03/04 08:59:08;;;;;;;;;;;22.40;25.70;;;;;;5076084;28;19920;-55
2022/03/04 09:01:33;;;;;;;;;;;22.40;25.70;;;;;;5075284;28;19912;-55
2022/03/04 09:03:59;;;;;;;;;;;22.40;25.70;;;;;;5075993;28;20316;-52
2022/03/04 09:06:25;;;;;;;;;;;22.40;25.70;;;;;;5076039;28;20002;-54
2022/03/04 09:08:50;;;;;;;;;;;22.40;25.70;;;;;;5075386;28;19919;-52
2022/03/04 09:11:16;;;;;;;;;;;22.40;25.70;;;;;;5075887;28;19918;-56
2022/03/04 09:13:42;;;;;;;;;;;22.40;25.70;;;;;;5075943;28;19908;-53
2022/03/04 09:16:08;;;;;;;;;;;22.40;25.70;;;;;;5074195;28;19908;-54
2022/03/04 09:18:34;;;;;;;;;;;22.50;25.70;;;;;;5075467;28;19908;-57
2022/03/04 09:21:00;;;;;;;;;;;22.40;25.70;;;;;;5073789;28;19908;-55
2022/03/04 09:23:25;;;;;;;;;;;22.40;25.70;;;;;;5075190;28;19916;-55
2022/03/04 09:25:52;;;;;;;;;;;22.40;25.70;;;;;;5075547;28;20005;-55
2022/03/04 09:28:18;;;;;;;;;;;22.40;25.70;;;;;;5074138;28;20003;-53
2022/03/04 09:30:43;;;;;;;;;;;22.40;25.70;;;;;;5074879;28;20016;-51
2022/03/04 09:33:09;;;;;;;;;;;22.40;25.70;;;;;;5072974;28;19908;-55
2022/03/04 09:35:35;;;;;;;;;;;22.40;25.70;;;;;;5074136;28;19912;-53
2022/03/04 09:38:00;;;;;;;;;;;22.30;25.60;;;;;;5075031;28;19909;-57
2022/03/04 09:40:27;;;;;;;;;;;22.30;25.60;;;;;;5075109;28;19908;-55
2022/03/04 09:42:53;;;;;;;;;;;22.30;25.60;;;;;;5074439;28;19980;-53
2022/03/04 09:45:19;;;;;;;;;;;22.30;25.60;;;;;;5074577;28;19908;-54
2022/03/04 09:47:45;;;;;;;;;;;22.20;25.60;;;;;;5075318;28;20065;-51
2022/03/04 09:50:13;;;;;;;;;;;22.20;25.60;;;;;;5075708;28;19947;-55
2022/03/04 09:52:40;;;;;;;;;;;22.20;25.60;;;;;;5073722;28;19916;-52
2022/03/04 09:55:05;;;;;;;;;;;22.20;25.70;;;;;;5075096;28;20318;-56
2022/03/04 09:57:31;;;;;;;;;;;22.20;25.70;;;;;;5075496;28;20003;-56
2022/03/04 09:59:57;;;;;;;;;;;22.20;25.70;;;;;;5074869;28;19908;-57
2022/03/04 10:02:25;;;;;;;;;;;22.10;25.70;;;;;;5076241;28;19920;-58
2022/03/04 10:05:01;;;;;;;;;;;22.10;25.70;;;;;;5075276;28;19917;-55
2022/03/04 10:07:27;;;;;;;;;;;22.10;25.70;;;;;;5075554;28;20003;-57
2022/03/04 10:09:53;;;;;;;;;;;22.10;25.70;;;;;;5075477;28;19909;-52
2022/03/04 10:12:20;;;;;;;;;;;22.10;25.70;;;;;;5075198;28;19908;-57
2022/03/04 10:15:15;;;;;;;;;;;22.10;25.70;;;;;;5075086;28;19930;-52
2022/03/04 10:17:40;;;;;;;;;;;22.00;25.70;;;;;;5057289;28;19909;-58
2022/03/04 10:20:12;;;;;;;;;;;22.00;25.70;;;;;;5074736;28;19915;-56
2022/03/04 10:22:42;;;;;;;;;;;22.00;25.80;;;;;;5074963;28;19917;-55
2022/03/04 10:25:26;;;;;;;;;;;21.90;25.70;;;;;;5074072;28;19912;-53
2022/03/04 10:27:52;;;;;;;;;;;21.90;25.80;;;;;;5074541;28;19920;-56
2022/03/04 10:30:28;;;;;;;;;;;21.90;25.80;;;;;;5074759;28;20286;-50
2022/03/04 10:33:32;;;;;;;;;;;21.90;25.80;;;;;;5074394;28;20338;-54
2022/03/04 10:36:06;;;;;;;;;;;21.90;25.90;;;;;;4992619;28;19910;-57
2022/03/04 10:38:32;;;;;;;;;;;21.90;25.90;;;;;;4992150;28;19949;-57
2022/03/04 10:40:58;;;;;;;;;;;21.90;25.90;;;;;;5028979;28;19955;-55
2022/03/04 10:43:29;;;;;;;;;;;21.90;25.90;;;;;;5073945;28;19916;-55
2022/03/04 10:46:01;;;;;;;;;;;21.90;26.00;;;;;;5071893;28;19912;-52
2022/03/04 10:48:26;;;;;;;;;;;21.80;25.90;;;;;;5073210;28;19962;-55
2022/03/04 10:50:54;;;;;;;;;;;21.90;26.00;;;;;;5063599;28;19909;-57
2022/03/04 10:53:28;;;;;;;;;;;21.80;25.90;;;;;;5062999;28;19920;-52
2022/03/04 10:55:55;;;;;;;;;;;21.80;25.90;;;;;;5061984;28;19965;-56
2022/03/04 10:58:21;;;;;;;;;;;21.80;26.00;;;;;;5064133;28;20282;-51
2022/03/04 11:00:50;;;;;;;;;;;21.80;26.00;;;;;;5060904;28;19913;-52
2022/03/04 11:03:17;;;;;;;;;;;21.80;26.00;;;;;;5060383;28;20439;-52
2022/03/04 11:05:43;;;;;;;;;;;21.80;26.00;;;;;;5068702;28;19971;-53
2022/03/04 11:08:09;;;;;;;;;;;21.80;26.00;;;;;;5058313;28;20247;-55
2022/03/04 11:10:35;;;;;;;;;;;21.80;26.10;;;;;;5059517;28;19913;-59
2022/03/04 11:13:05;;;;;;;;;;;21.80;26.20;;;;;;5068592;28;19928;-53
2022/03/04 11:15:31;;;;;;;;;;;21.80;26.30;;;;;;5062708;28;19917;-53
2022/03/04 11:17:59;;;;;;;;;;;21.80;26.30;;;;;;5065462;28;19909;-55
2022/03/04 11:20:25;;;;;;;;;;;21.80;26.30;;;;;;5065895;28;19954;-56
2022/03/04 11:22:51;;;;;;;;;;;21.80;26.30;;;;;;5060202;28;20045;-49
2022/03/04 11:25:17;;;;;;;;;;;21.80;26.30;;;;;;5068801;28;19920;-52
2022/03/04 11:27:43;;;;;;;;;;;21.80;26.50;;;;;;5062844;28;19908;-59
2022/03/04 11:30:28;;;;;;;;;;;21.90;26.70;;;;;;5070687;28;19915;-57
2022/03/04 11:32:59;;;;;;;;;;;22.00;26.80;;;;;;5070031;28;19922;-53
2022/03/04 11:35:43;;;;;;;;;;;22.10;26.90;;;;;;5073453;28;20328;-48
2022/03/04 11:38:09;;;;;;;;;;;22.10;26.90;;;;;;5061482;28;20420;-54
2022/03/04 11:40:35;;;;;;;;;;;22.20;27.10;;;;;;5059231;28;19967;-60
2022/03/04 11:43:02;;;;;;;;;;;22.20;27.10;;;;;;5061091;28;19978;-56
2022/03/04 11:45:32;;;;;;;;;;;22.30;27.20;;;;;;5067003;28;20319;-52
2022/03/04 11:48:02;;;;;;;;;;;22.30;27.20;;;;;;5069084;28;20259;-54
2022/03/04 11:50:30;;;;;;;;;;;22.40;27.20;;;;;;5067863;28;20054;-53
2022/03/04 11:53:11;;;;;;;;;;;22.40;27.20;;;;;;5064654;28;19920;-58
2022/03/04 11:55:37;;;;;;;;;;;22.40;27.10;;;;;;5064765;28;19909;-56
2022/03/04 11:58:03;;;;;;;;;;;22.40;27.10;;;;;;5065043;28;19916;-53
2022/03/04 12:00:30;;;;;;;;;;;22.50;27.10;;;;;;5067519;28;20239;-56
2022/03/04 12:02:57;;;;;;;;;;;22.50;27.10;;;;;;5066321;28;19995;-55
2022/03/04 12:05:28;;;;;;;;;;;22.50;27.10;;;;;;5066685;28;20336;-51
2022/03/04 12:07:54;;;;;;;;;;;22.60;27.20;;;;;;5068043;28;19920;-53
2022/03/04 12:10:20;;;;;;;;;;;22.60;27.20;;;;;;5067474;28;19920;-56
2022/03/04 12:13:04;;;;;;;;;;;22.60;27.20;;;;;;5060979;28;20046;-52
2022/03/04 12:15:40;;;;;;;;;;;22.60;27.70;;;;;;5068515;28;19909;-56
2022/03/04 12:18:25;;;;;;;;;;;22.70;27.20;;;;;;5067323;28;19910;-59
2022/03/04 12:20:57;;;;;;;;;;;22.70;27.20;;;;;;5066803;28;20678;-49
2022/03/04 12:23:33;;;;;;;;;;;22.70;27.20;;;;;;5060302;28;19921;-49
2022/03/04 12:25:58;;;;;;;;;;;22.70;27.30;;;;;;5062641;28;19909;-57
2022/03/04 12:28:25;;;;;;;;;;;22.70;27.20;;;;;;5064653;28;19962;-52
2022/03/04 12:31:00;;;;;;;;;;;22.60;27.20;;;;;;5071326;28;19962;-51
2022/03/04 12:33:32;;;;;;;;;;;22.60;27.10;;;;;;5064083;28;19974;-53
2022/03/04 12:35:58;;;;;;;;;;;22.60;27.10;;;;;;5070419;28;19921;-52
2022/03/04 12:38:24;;;;;;;;;;;22.60;27.10;;;;;;5060004;28;20003;-52
2022/03/04 12:40:50;;;;;;;;;;;22.50;27.00;;;;;;5066099;28;20224;-50
2022/03/04 12:43:16;;;;;;;;;;;22.50;27.10;;;;;;5070018;28;19929;-53
2022/03/04 12:45:41;;;;;;;;;;;22.50;27.20;;;;;;5061231;28;20015;-53
2022/03/04 12:48:08;;;;;;;;;;;22.60;27.20;;;;;;5058718;28;19939;-49
2022/03/04 12:50:35;;;;;;;;;;;22.50;27.10;;;;;;5064059;28;20110;-55
2022/03/04 12:53:20;;;;;;;;;;;22.50;27.20;;;;;;5056005;28;19913;-53
2022/03/04 12:55:52;;;;;;;;;;;22.60;27.30;;;;;;5059363;28;19924;-50
2022/03/04 12:58:33;;;;;;;;;;;22.50;27.30;;;;;;5067042;28;19931;-48
2022/03/04 13:01:01;;;;;;;;;;;22.60;27.40;;;;;;5068932;28;20002;-52
2022/03/04 13:03:28;;;;;;;;;;;22.60;27.40;;;;;;5064910;28;19916;-47
2022/03/04 13:05:55;;;;;;;;;;;22.60;27.40;;;;;;5075175;28;21147;-54
2022/03/04 13:08:21;;;;;;;;;;;22.60;27.40;;;;;;5075807;28;19966;-54
2022/03/04 13:10:47;;;;;;;;;;;22.60;27.40;;;;;;5068897;28;19908;-54
2022/03/04 13:13:13;;;;;;;;;;;22.60;27.50;;;;;;5063319;28;19993;-54
2022/03/04 13:16:05;;;;;;;;;;;22.70;27.50;;;;;;5070453;28;20258;-50
2022/03/04 13:18:30;;;;;;;;;;;22.70;27.50;;;;;;5071881;28;19936;-50
2022/03/04 13:21:03;;;;;;;;;;;22.70;27.50;;;;;;5076005;28;19951;-51
2022/03/04 13:23:29;;;;;;;;;;;22.70;27.50;;;;;;5075823;28;19982;-53
2022/03/04 13:26:03;;;;;;;;;;;22.70;27.50;;;;;;5075776;28;19916;-52
2022/03/04 13:28:48;;;;;;;;;;;22.70;27.50;;;;;;5075868;28;20059;-46
2022/03/04 13:31:21;;;;;;;;;;;22.70;27.40;;;;;;5060430;28;19909;-55
2022/03/04 13:33:46;;;;;;;;;;;22.70;27.40;;;;;;5071295;28;20227;-54
2022/03/04 13:36:12;;;;;;;;;;;22.70;27.40;;;;;;5056183;28;20000;-53
2022/03/04 13:38:40;;;;;;;;;;;22.70;27.40;;;;;;5055403;28;19908;-53
2022/03/04 13:41:21;;;;;;;;;;;22.70;27.40;;;;;;5055808;28;19912;-47
2022/03/04 13:43:47;;;;;;;;;;;22.60;27.30;;;;;;5056984;28;20023;-53
2022/03/04 13:46:12;;;;;;;;;;;22.60;27.30;;;;;;5074035;28;20006;-56
2022/03/04 13:48:38;;;;;;;;;;;22.50;27.20;;;;;;5075909;28;19915;-47
2022/03/04 13:51:11;;;;;;;;;;;22.50;27.20;;;;;;5075372;28;19912;-52
2022/03/04 13:53:54;;;;;;;;;;;22.40;27.20;;;;;;5075081;28;20343;-52
2022/03/04 13:56:20;;;;;;;;;;;22.30;27.10;;;;;;5075339;28;20235;-53
2022/03/04 13:58:54;;;;;;;;;;;22.30;27.00;;;;;;5075273;28;19916;-52
2022/03/04 14:01:20;;;;;;;;;;;22.20;26.90;;;;;;5075314;28;20027;-53
2022/03/04 14:03:46;;;;;;;;;;;22.20;27.00;;;;;;5075335;28;20312;-53
2022/03/04 14:06:13;;;;;;;;;;;22.20;26.90;;;;;;5075303;28;19909;-52
2022/03/04 14:08:39;;;;;;;;;;;22.20;26.90;;;;;;5075621;28;19951;-53
2022/03/04 14:11:06;;;;;;;;;;;22.10;26.80;;;;;;5075459;28;19916;-50
2022/03/04 14:13:32;;;;;;;;;;;22.10;26.80;;;;;;5075341;28;19967;-51
2022/03/04 14:15:58;;;;;;;;;;;22.10;26.70;;;;;;5075029;28;19908;-51